sensor_id;sensor_type;location;lat;lon;timestamp;pressure;altitude;pressure_sealevel;temperature;humidity
63903;BME280;50072;50.678;13.938;2023-05-21T00:01:43;99802.41;;;15.15;83.30
63903;BME280;50072;50.678;13.938;2023-05-21T00:04:09;99806.81;;;15.18;84.06
63903;BME280;50072;50.678;13.938;2023-05-21T00:06:37;99800.72;;;15.13;84.86
63903;BME280;50072;50.678;13.938;2023-05-21T00:09:04;99794.63;;;15.08;85.84
63903;BME280;50072;50.678;13.938;2023-05-21T00:11:31;99789.28;;;15.06;85.97
63903;BME280;50072;50.678;13.938;2023-05-21T00:13:57;99789.38;;;15.05;86.05
63903;BME280;50072;50.678;13.938;2023-05-21T00:16:23;99792.63;;;15.13;85.42
63903;BME280;50072;50.678;13.938;2023-05-21T00:18:49;99782.41;;;14.99;85.58
63903;BME280;50072;50.678;13.938;2023-05-21T00:21:18;99778.28;;;14.90;86.63
63903;BME280;50072;50.678;13.938;2023-05-21T00:23:47;99778.28;;;14.90;86.60
63903;BME280;50072;50.678;13.938;2023-05-21T00:26:14;99788.25;;;14.88;86.89
63903;BME280;50072;50.678;13.938;2023-05-21T00:28:40;99776.72;;;14.84;87.18
63903;BME280;50072;50.678;13.938;2023-05-21T00:31:06;99781.25;;;14.84;87.36
63903;BME280;50072;50.678;13.938;2023-05-21T00:33:32;99772.09;;;14.88;87.33
63903;BME280;50072;50.678;13.938;2023-05-21T00:35:58;99775.72;;;14.87;88.05
63903;BME280;50072;50.678;13.938;2023-05-21T00:38:24;99775.84;;;14.84;88.37
63903;BME280;50072;50.678;13.938;2023-05-21T00:40:52;99769.63;;;14.82;88.28
63903;BME280;50072;50.678;13.938;2023-05-21T00:43:18;99764.56;;;14.74;89.13
63903;BME280;50072;50.678;13.938;2023-05-21T00:45:44;99777.97;;;14.76;89.02
63903;BME280;50072;50.678;13.938;2023-05-21T00:48:12;99770.22;;;14.68;88.87
63903;BME280;50072;50.678;13.938;2023-05-21T00:50:40;99766.22;;;14.55;90.19
63903;BME280;50072;50.678;13.938;2023-05-21T00:53:06;99777.28;;;14.47;90.81
63903;BME280;50072;50.678;13.938;2023-05-21T00:55:36;99776.53;;;14.43;91.54
63903;BME280;50072;50.678;13.938;2023-05-21T00:58:02;99775.66;;;14.43;92.20
63903;BME280;50072;50.678;13.938;2023-05-21T01:00:37;99758.66;;;14.41;93.11
63903;BME280;50072;50.678;13.938;2023-05-21T01:03:05;99764.88;;;14.43;93.19
63903;BME280;50072;50.678;13.938;2023-05-21T01:05:31;99765.69;;;14.45;93.41
63903;BME280;50072;50.678;13.938;2023-05-21T01:07:57;99775.34;;;14.50;92.98
63903;BME280;50072;50.678;13.938;2023-05-21T01:10:26;99770.53;;;14.59;92.40
63903;BME280;50072;50.678;13.938;2023-05-21T01:12:57;99765.28;;;14.56;91.77
63903;BME280;50072;50.678;13.938;2023-05-21T01:15:28;99767.38;;;14.47;91.92
63903;BME280;50072;50.678;13.938;2023-05-21T01:17:54;99768.28;;;14.48;91.83
63903;BME280;50072;50.678;13.938;2023-05-21T01:20:29;99765.75;;;14.43;92.74
63903;BME280;50072;50.678;13.938;2023-05-21T01:23:02;99761.72;;;14.31;93.74
63903;BME280;50072;50.678;13.938;2023-05-21T01:25:30;99767.25;;;14.28;93.65
63903;BME280;50072;50.678;13.938;2023-05-21T01:27:56;99759.56;;;14.18;94.08
63903;BME280;50072;50.678;13.938;2023-05-21T01:30:29;99755.53;;;14.06;95.45
63903;BME280;50072;50.678;13.938;2023-05-21T01:33:01;99762.16;;;13.97;95.93
63903;BME280;50072;50.678;13.938;2023-05-21T01:35:49;99758.50;;;13.74;97.49
63903;BME280;50072;50.678;13.938;2023-05-21T01:38:35;99756.50;;;13.79;97.67
63903;BME280;50072;50.678;13.938;2023-05-21T01:41:19;99756.31;;;13.60;99.66
63903;BME280;50072;50.678;13.938;2023-05-21T01:43:50;99753.25;;;13.46;100.00
63903;BME280;50072;50.678;13.938;2023-05-21T01:46:20;99751.59;;;13.42;100.00
63903;BME280;50072;50.678;13.938;2023-05-21T01:48:48;99753.59;;;13.35;100.00
63903;BME280;50072;50.678;13.938;2023-05-21T01:51:16;99759.72;;;13.40;100.00
63903;BME280;50072;50.678;13.938;2023-05-21T01:53:43;99749.28;;;13.29;100.00
63903;BME280;50072;50.678;13.938;2023-05-21T01:56:09;99749.34;;;13.28;100.00
63903;BME280;50072;50.678;13.938;2023-05-21T01:58:35;99752.38;;;13.19;100.00
63903;BME280;50072;50.678;13.938;2023-05-21T02:01:02;99752.59;;;13.12;100.00
63903;BME280;50072;50.678;13.938;2023-05-21T02:03:29;99749.56;;;13.22;100.00
63903;BME280;50072;50.678;13.938;2023-05-21T02:05:55;99745.44;;;13.11;100.00
63903;BME280;50072;50.678;13.938;2023-05-21T02:08:21;99744.78;;;13.05;100.00
63903;BME280;50072;50.678;13.938;2023-05-21T02:10:48;99757.47;;;13.00;100.00
63903;BME280;50072;50.678;13.938;2023-05-21T02:13:14;99741.56;;;12.93;100.00
63903;BME280;50072;50.678;13.938;2023-05-21T02:15:40;99746.25;;;12.88;100.00
63903;BME280;50072;50.678;13.938;2023-05-21T02:18:06;99755.31;;;12.84;100.00
63903;BME280;50072;50.678;13.938;2023-05-21T02:20:33;99742.53;;;12.91;100.00
63903;BME280;50072;50.678;13.938;2023-05-21T02:22:58;99742.13;;;12.76;100.00
63903;BME280;50072;50.678;13.938;2023-05-21T02:25:25;99747.66;;;12.72;100.00
63903;BME280;50072;50.678;13.938;2023-05-21T02:27:51;99744.97;;;12.72;100.00
63903;BME280;50072;50.678;13.938;2023-05-21T02:30:19;99745.59;;;12.80;100.00
63903;BME280;50072;50.678;13.938;2023-05-21T02:32:45;99750.25;;;12.75;100.00
63903;BME280;50072;50.678;13.938;2023-05-21T02:35:13;99749.72;;;12.64;100.00
63903;BME280;50072;50.678;13.938;2023-05-21T02:37:39;99739.88;;;12.63;100.00
63903;BME280;50072;50.678;13.938;2023-05-21T02:40:06;99735.66;;;12.55;100.00
63903;BME280;50072;50.678;13.938;2023-05-21T02:42:33;99746.16;;;12.63;100.00
63903;BME280;50072;50.678;13.938;2023-05-21T02:44:59;99734.84;;;12.53;100.00
63903;BME280;50072;50.678;13.938;2023-05-21T02:47:25;99730.38;;;12.52;100.00
63903;BME280;50072;50.678;13.938;2023-05-21T02:49:52;99739.38;;;12.51;100.00
63903;BME280;50072;50.678;13.938;2023-05-21T02:52:18;99739.28;;;12.54;100.00
63903;BME280;50072;50.678;13.938;2023-05-21T02:54:45;99739.56;;;12.45;100.00
63903;BME280;50072;50.678;13.938;2023-05-21T02:57:11;99736.16;;;12.40;100.00
63903;BME280;50072;50.678;13.938;2023-05-21T02:59:37;99730.88;;;12.37;100.00
63903;BME280;50072;50.678;13.938;2023-05-21T03:02:03;99739.66;;;12.42;100.00
63903;BME280;50072;50.678;13.938;2023-05-21T03:04:29;99740.69;;;12.38;100.00
63903;BME280;50072;50.678;13.938;2023-05-21T03:06:55;99737.22;;;12.34;100.00
63903;BME280;50072;50.678;13.938;2023-05-21T03:09:21;99746.97;;;12.37;100.00
63903;BME280;50072;50.678;13.938;2023-05-21T03:11:48;99740.13;;;12.26;100.00
63903;BME280;50072;50.678;13.938;2023-05-21T03:14:14;99737.69;;;12.19;100.00
63903;BME280;50072;50.678;13.938;2023-05-21T03:16:41;99740.44;;;12.17;100.00
63903;BME280;50072;50.678;13.938;2023-05-21T03:19:08;99740.34;;;12.20;100.00
63903;BME280;50072;50.678;13.938;2023-05-21T03:21:34;99736.75;;;12.20;100.00
63903;BME280;50072;50.678;13.938;2023-05-21T03:24:04;99740.34;;;12.20;100.00
63903;BME280;50072;50.678;13.938;2023-05-21T03:26:30;99737.69;;;12.19;100.00
63903;BME280;50072;50.678;13.938;2023-05-21T03:28:56;99735.84;;;12.21;100.00
63903;BME280;50072;50.678;13.938;2023-05-21T03:31:23;99738.47;;;12.22;100.00
63903;BME280;50072;50.678;13.938;2023-05-21T03:33:50;99739.41;;;12.21;100.00
63903;BME280;50072;50.678;13.938;2023-05-21T03:36:17;99742.66;;;12.31;100.00
63903;BME280;50072;50.678;13.938;2023-05-21T03:38:43;99740.19;;;12.25;100.00
63903;BME280;50072;50.678;13.938;2023-05-21T03:41:09;99742.09;;;12.21;100.00
63903;BME280;50072;50.678;13.938;2023-05-21T03:43:35;99743.13;;;12.17;100.00
63903;BME280;50072;50.678;13.938;2023-05-21T03:46:01;99739.69;;;12.12;100.00
63903;BME280;50072;50.678;13.938;2023-05-21T03:48:27;99741.16;;;12.22;100.00
63903;BME280;50072;50.678;13.938;2023-05-21T03:50:53;99734.78;;;12.26;100.00
63903;BME280;50072;50.678;13.938;2023-05-21T03:53:19;99743.47;;;12.35;100.00
63903;BME280;50072;50.678;13.938;2023-05-21T03:55:44;99749.66;;;12.37;100.00
63903;BME280;50072;50.678;13.938;2023-05-21T03:58:11;99752.34;;;12.37;100.00
63903;BME280;50072;50.678;13.938;2023-05-21T04:00:36;99755.66;;;12.45;100.00
63903;BME280;50072;50.678;13.938;2023-05-21T04:03:03;99749.38;;;12.46;100.00
63903;BME280;50072;50.678;13.938;2023-05-21T04:05:28;99751.19;;;12.46;100.00
63903;BME280;50072;50.678;13.938;2023-05-21T04:07:54;99759.00;;;12.53;100.00
63903;BME280;50072;50.678;13.938;2023-05-21T04:10:20;99752.88;;;12.48;100.00
63903;BME280;50072;50.678;13.938;2023-05-21T04:12:47;99753.56;;;12.55;100.00
63903;BME280;50072;50.678;13.938;2023-05-21T04:15:18;99755.94;;;12.66;100.00
63903;BME280;50072;50.678;13.938;2023-05-21T04:17:44;99754.47;;;12.82;100.00
63903;BME280;50072;50.678;13.938;2023-05-21T04:20:13;99751.84;;;12.81;100.00
63903;BME280;50072;50.678;13.938;2023-05-21T04:22:42;99754.47;;;12.82;100.00
63903;BME280;50072;50.678;13.938;2023-05-21T04:25:08;99757.47;;;13.00;100.00
63903;BME280;50072;50.678;13.938;2023-05-21T04:27:35;99750.25;;;13.02;100.00
63903;BME280;50072;50.678;13.938;2023-05-21T04:30:01;99746.88;;;13.22;100.00
63903;BME280;50072;50.678;13.938;2023-05-21T04:32:29;99748.47;;;13.27;100.00
63903;BME280;50072;50.678;13.938;2023-05-21T04:34:56;99742.84;;;13.35;100.00
63903;BME280;50072;50.678;13.938;2023-05-21T04:37:22;99743.28;;;13.48;100.00
63903;BME280;50072;50.678;13.938;2023-05-21T04:39:53;99744.50;;;13.64;100.00
63903;BME280;50072;50.678;13.938;2023-05-21T04:42:20;99753.81;;;13.79;100.00
63903;BME280;50072;50.678;13.938;2023-05-21T04:44:49;99752.25;;;13.97;100.00
63903;BME280;50072;50.678;13.938;2023-05-21T04:47:18;99746.47;;;14.08;100.00
63903;BME280;50072;50.678;13.938;2023-05-21T04:49:44;99745.13;;;14.20;100.00
63903;BME280;50072;50.678;13.938;2023-05-21T04:52:12;99747.41;;;14.31;100.00
63903;BME280;50072;50.678;13.938;2023-05-21T04:54:38;99743.28;;;14.44;100.00
63903;BME280;50072;50.678;13.938;2023-05-21T04:57:07;99737.47;;;14.55;100.00
63903;BME280;50072;50.678;13.938;2023-05-21T04:59:33;99745.16;;;14.88;100.00
63903;BME280;50072;50.678;13.938;2023-05-21T05:01:59;99741.25;;;14.95;99.61
63903;BME280;50072;50.678;13.938;2023-05-21T05:04:25;99742.47;;;15.09;99.34
63903;BME280;50072;50.678;13.938;2023-05-21T05:06:51;99741.53;;;15.30;98.33
63903;BME280;50072;50.678;13.938;2023-05-21T05:09:17;99739.25;;;15.42;97.27
63903;BME280;50072;50.678;13.938;2023-05-21T05:11:43;99747.34;;;15.62;96.76
63903;BME280;50072;50.678;13.938;2023-05-21T05:14:09;99739.44;;;15.78;96.24
63903;BME280;50072;50.678;13.938;2023-05-21T05:16:35;99740.22;;;15.82;95.30
63903;BME280;50072;50.678;13.938;2023-05-21T05:19:01;99743.28;;;15.93;95.17
63903;BME280;50072;50.678;13.938;2023-05-21T05:21:26;99732.38;;;16.15;94.46
63903;BME280;50072;50.678;13.938;2023-05-21T05:23:52;99735.28;;;16.30;93.23
63903;BME280;50072;50.678;13.938;2023-05-21T05:26:18;99729.22;;;16.44;94.18
63903;BME280;50072;50.678;13.938;2023-05-21T05:28:44;99731.81;;;16.64;91.87
63903;BME280;50072;50.678;13.938;2023-05-21T05:31:10;99731.00;;;16.81;91.08
63903;BME280;50072;50.678;13.938;2023-05-21T05:33:36;99725.78;;;16.96;90.06
63903;BME280;50072;50.678;13.938;2023-05-21T05:36:02;99723.91;;;16.98;89.15
63903;BME280;50072;50.678;13.938;2023-05-21T05:38:28;99716.28;;;17.06;89.92
63903;BME280;50072;50.678;13.938;2023-05-21T05:40:54;99722.88;;;17.35;87.82
63903;BME280;50072;50.678;13.938;2023-05-21T05:43:20;99726.53;;;17.52;87.56
63903;BME280;50072;50.678;13.938;2023-05-21T05:45:46;99714.94;;;17.66;87.77
63903;BME280;50072;50.678;13.938;2023-05-21T05:48:11;99721.38;;;17.81;87.38
63903;BME280;50072;50.678;13.938;2023-05-21T05:50:37;99730.78;;;17.91;87.33
63903;BME280;50072;50.678;13.938;2023-05-21T05:53:03;99717.53;;;18.02;87.70
63903;BME280;50072;50.678;13.938;2023-05-21T05:55:29;99726.88;;;18.13;87.90
63903;BME280;50072;50.678;13.938;2023-05-21T05:57:55;99722.81;;;18.21;88.41
63903;BME280;50072;50.678;13.938;2023-05-21T06:00:20;99715.13;;;18.29;87.18
63903;BME280;50072;50.678;13.938;2023-05-21T06:02:47;99716.41;;;18.38;86.93
63903;BME280;50072;50.678;13.938;2023-05-21T06:05:13;99718.81;;;18.44;86.78
63903;BME280;50072;50.678;13.938;2023-05-21T06:07:39;99711.72;;;18.58;86.94
63903;BME280;50072;50.678;13.938;2023-05-21T06:10:06;99713.66;;;18.56;86.45
63903;BME280;50072;50.678;13.938;2023-05-21T06:12:32;99704.81;;;18.52;87.22
63903;BME280;50072;50.678;13.938;2023-05-21T06:15:05;99707.59;;;18.51;86.66
63903;BME280;50072;50.678;13.938;2023-05-21T06:17:31;99709.38;;;18.52;87.09
63903;BME280;50072;50.678;13.938;2023-05-21T06:19:57;99707.84;;;18.78;86.38
63903;BME280;50072;50.678;13.938;2023-05-21T06:22:23;99706.34;;;19.04;85.76
63903;BME280;50072;50.678;13.938;2023-05-21T06:24:49;99707.53;;;19.14;84.73
63903;BME280;50072;50.678;13.938;2023-05-21T06:27:15;99711.41;;;19.10;83.41
63903;BME280;50072;50.678;13.938;2023-05-21T06:29:40;99712.38;;;19.40;82.59
63903;BME280;50072;50.678;13.938;2023-05-21T06:32:07;99706.19;;;19.22;84.27
63903;BME280;50072;50.678;13.938;2023-05-21T06:34:33;99710.81;;;19.36;84.02
63903;BME280;50072;50.678;13.938;2023-05-21T06:36:59;99702.69;;;19.50;84.20
63903;BME280;50072;50.678;13.938;2023-05-21T06:39:25;99708.63;;;19.57;84.55
63903;BME280;50072;50.678;13.938;2023-05-21T06:41:52;99715.78;;;19.72;83.16
63903;BME280;50072;50.678;13.938;2023-05-21T06:44:17;99714.84;;;19.88;80.67
63903;BME280;50072;50.678;13.938;2023-05-21T06:46:43;99708.47;;;19.89;80.96
63903;BME280;50072;50.678;13.938;2023-05-21T06:49:12;99699.72;;;20.12;75.93
63903;BME280;50072;50.678;13.938;2023-05-21T06:51:38;99708.53;;;20.30;74.20
63903;BME280;50072;50.678;13.938;2023-05-21T06:54:04;99705.41;;;20.22;75.01
63903;BME280;50072;50.678;13.938;2023-05-21T06:56:30;99707.84;;;20.41;74.05
63903;BME280;50072;50.678;13.938;2023-05-21T06:58:56;99701.03;;;20.48;74.06
63903;BME280;50072;50.678;13.938;2023-05-21T07:01:22;99699.47;;;20.44;73.64
63903;BME280;50072;50.678;13.938;2023-05-21T07:03:48;99705.91;;;20.29;73.50
63903;BME280;50072;50.678;13.938;2023-05-21T07:06:14;99708.16;;;20.37;74.17
63903;BME280;50072;50.678;13.938;2023-05-21T07:08:41;99705.13;;;20.41;72.75
63903;BME280;50072;50.678;13.938;2023-05-21T07:11:07;99696.00;;;20.42;72.83
63903;BME280;50072;50.678;13.938;2023-05-21T07:13:34;99702.50;;;20.40;73.63
63903;BME280;50072;50.678;13.938;2023-05-21T07:16:00;99704.50;;;20.50;73.04
63903;BME280;50072;50.678;13.938;2023-05-21T07:18:26;99699.09;;;20.78;72.39
63903;BME280;50072;50.678;13.938;2023-05-21T07:20:52;99695.28;;;21.08;69.94
63903;BME280;50072;50.678;13.938;2023-05-21T07:23:18;99692.59;;;21.20;69.60
63903;BME280;50072;50.678;13.938;2023-05-21T07:25:46;99698.72;;;21.37;69.54
63903;BME280;50072;50.678;13.938;2023-05-21T07:28:12;99699.81;;;21.47;68.35
63903;BME280;50072;50.678;13.938;2023-05-21T07:30:38;99692.72;;;21.45;70.00
63903;BME280;50072;50.678;13.938;2023-05-21T07:33:03;99687.53;;;21.54;68.94
63903;BME280;50072;50.678;13.938;2023-05-21T07:35:29;99693.47;;;21.21;68.86
63903;BME280;50072;50.678;13.938;2023-05-21T07:37:55;99691.13;;;21.42;70.58
63903;BME280;50072;50.678;13.938;2023-05-21T07:40:21;99693.56;;;21.60;69.24
63903;BME280;50072;50.678;13.938;2023-05-21T07:42:47;99696.06;;;21.63;68.04
63903;BME280;50072;50.678;13.938;2023-05-21T07:45:13;99699.44;;;21.79;71.15
63903;BME280;50072;50.678;13.938;2023-05-21T07:47:38;99696.81;;;22.03;71.06
63903;BME280;50072;50.678;13.938;2023-05-21T07:50:05;99692.41;;;22.27;67.44
63903;BME280;50072;50.678;13.938;2023-05-21T07:52:31;99692.50;;;22.38;66.84
63903;BME280;50072;50.678;13.938;2023-05-21T07:54:57;99686.47;;;22.46;69.15
63903;BME280;50072;50.678;13.938;2023-05-21T07:57:22;99700.03;;;22.34;64.61
63903;BME280;50072;50.678;13.938;2023-05-21T07:59:48;99695.47;;;22.35;65.79
63903;BME280;50072;50.678;13.938;2023-05-21T08:02:14;99692.97;;;22.56;65.89
63903;BME280;50072;50.678;13.938;2023-05-21T08:04:40;99695.03;;;22.15;65.85
63903;BME280;50072;50.678;13.938;2023-05-21T08:07:06;99692.25;;;21.78;67.70
63903;BME280;50072;50.678;13.938;2023-05-21T08:09:34;99700.19;;;21.55;68.46
63903;BME280;50072;50.678;13.938;2023-05-21T08:12:00;99692.34;;;21.64;67.89
63903;BME280;50072;50.678;13.938;2023-05-21T08:14:25;99698.31;;;21.95;67.47
63903;BME280;50072;50.678;13.938;2023-05-21T08:16:51;99708.25;;;21.96;66.55
63903;BME280;50072;50.678;13.938;2023-05-21T08:19:17;99705.97;;;22.02;66.75
63903;BME280;50072;50.678;13.938;2023-05-21T08:21:43;99703.66;;;22.09;66.50
63903;BME280;50072;50.678;13.938;2023-05-21T08:24:08;99705.09;;;21.89;66.47
63903;BME280;50072;50.678;13.938;2023-05-21T08:26:34;99711.19;;;21.93;66.02
63903;BME280;50072;50.678;13.938;2023-05-21T08:29:01;99702.88;;;22.07;65.58
63903;BME280;50072;50.678;13.938;2023-05-21T08:31:27;99701.78;;;22.22;64.80
63903;BME280;50072;50.678;13.938;2023-05-21T08:33:53;99701.09;;;22.32;66.70
63903;BME280;50072;50.678;13.938;2023-05-21T08:36:21;99699.66;;;22.52;65.63
63903;BME280;50072;50.678;13.938;2023-05-21T08:38:47;99706.19;;;22.62;64.37
63903;BME280;50072;50.678;13.938;2023-05-21T08:41:13;99704.06;;;22.66;64.10
63903;BME280;50072;50.678;13.938;2023-05-21T08:43:39;99702.78;;;22.58;63.54
63903;BME280;50072;50.678;13.938;2023-05-21T08:46:07;99701.69;;;22.61;64.63
63903;BME280;50072;50.678;13.938;2023-05-21T08:48:33;99703.03;;;22.80;65.54
63903;BME280;50072;50.678;13.938;2023-05-21T08:51:00;99705.28;;;22.86;64.18
63903;BME280;50072;50.678;13.938;2023-05-21T08:53:26;99701.41;;;22.77;64.24
63903;BME280;50072;50.678;13.938;2023-05-21T08:55:53;99707.22;;;22.97;63.44
63903;BME280;50072;50.678;13.938;2023-05-21T08:58:22;99693.41;;;22.63;64.37
63903;BME280;50072;50.678;13.938;2023-05-21T09:00:48;99697.56;;;22.55;64.73
63903;BME280;50072;50.678;13.938;2023-05-21T09:03:15;99698.44;;;22.56;64.39
63903;BME280;50072;50.678;13.938;2023-05-21T09:05:41;99695.69;;;22.56;65.52
63903;BME280;50072;50.678;13.938;2023-05-21T09:08:26;99688.47;;;22.68;64.50
63903;BME280;50072;50.678;13.938;2023-05-21T09:10:54;99689.88;;;22.73;64.68
63903;BME280;50072;50.678;13.938;2023-05-21T09:13:19;99689.16;;;22.83;64.00
63903;BME280;50072;50.678;13.938;2023-05-21T09:15:46;99689.88;;;22.98;64.48
63903;BME280;50072;50.678;13.938;2023-05-21T09:18:12;99692.97;;;23.04;61.96
63903;BME280;50072;50.678;13.938;2023-05-21T09:20:39;99686.91;;;23.25;63.12
63903;BME280;50072;50.678;13.938;2023-05-21T09:23:06;99689.78;;;23.35;62.05
63903;BME280;50072;50.678;13.938;2023-05-21T09:25:37;99691.16;;;23.40;59.94
63903;BME280;50072;50.678;13.938;2023-05-21T09:28:10;99685.22;;;23.47;60.04
63903;BME280;50072;50.678;13.938;2023-05-21T09:30:36;99679.78;;;23.58;60.16
63903;BME280;50072;50.678;13.938;2023-05-21T09:33:02;99682.78;;;23.77;61.76
63903;BME280;50072;50.678;13.938;2023-05-21T09:35:28;99689.66;;;24.06;60.20
63903;BME280;50072;50.678;13.938;2023-05-21T09:37:54;99682.56;;;24.26;59.91
63903;BME280;50072;50.678;13.938;2023-05-21T09:40:22;99684.91;;;24.42;59.51
63903;BME280;50072;50.678;13.938;2023-05-21T09:42:49;99688.06;;;24.58;58.80
63903;BME280;50072;50.678;13.938;2023-05-21T09:45:26;99678.00;;;24.81;59.29
63903;BME280;50072;50.678;13.938;2023-05-21T09:47:54;99667.94;;;24.71;57.31
63903;BME280;50072;50.678;13.938;2023-05-21T09:50:24;99678.03;;;24.70;56.42
63903;BME280;50072;50.678;13.938;2023-05-21T09:52:52;99665.09;;;24.61;57.05
63903;BME280;50072;50.678;13.938;2023-05-21T09:55:24;99667.81;;;24.72;57.75
63903;BME280;50072;50.678;13.938;2023-05-21T09:57:52;99661.84;;;24.99;55.87
63903;BME280;50072;50.678;13.938;2023-05-21T10:00:22;99659.69;;;25.14;56.13
63903;BME280;50072;50.678;13.938;2023-05-21T10:02:53;99659.13;;;25.21;54.51
63903;BME280;50072;50.678;13.938;2023-05-21T10:05:19;99665.53;;;25.31;54.81
63903;BME280;50072;50.678;13.938;2023-05-21T10:07:50;99670.13;;;25.42;53.48
63903;BME280;50072;50.678;13.938;2023-05-21T10:10:18;99659.88;;;25.65;53.12
63903;BME280;50072;50.678;13.938;2023-05-21T10:12:45;99658.66;;;25.79;53.44
63903;BME280;50072;50.678;13.938;2023-05-21T10:15:16;99666.66;;;26.13;51.52
63903;BME280;50072;50.678;13.938;2023-05-21T10:17:45;99669.06;;;26.06;51.51
63903;BME280;50072;50.678;13.938;2023-05-21T10:20:13;99660.72;;;26.58;50.20
63903;BME280;50072;50.678;13.938;2023-05-21T10:22:39;99665.63;;;26.64;49.40
63903;BME280;50072;50.678;13.938;2023-05-21T10:25:06;99653.50;;;26.67;49.60
63903;BME280;50072;50.678;13.938;2023-05-21T10:27:34;99663.69;;;27.35;47.67
63903;BME280;50072;50.678;13.938;2023-05-21T10:30:00;99656.78;;;28.44;46.49
63903;BME280;50072;50.678;13.938;2023-05-21T10:32:26;99643.06;;;29.16;43.95
63903;BME280;50072;50.678;13.938;2023-05-21T10:34:53;99648.34;;;29.98;42.33
63903;BME280;50072;50.678;13.938;2023-05-21T10:37:23;99654.97;;;30.48;39.41
63903;BME280;50072;50.678;13.938;2023-05-21T10:39:51;99648.91;;;31.03;38.94
63903;BME280;50072;50.678;13.938;2023-05-21T10:58:50;99621.97;;;32.42;33.80
63903;BME280;50072;50.678;13.938;2023-05-21T11:01:21;99623.34;;;32.46;32.67
63903;BME280;50072;50.678;13.938;2023-05-21T11:03:47;99625.94;;;32.48;31.46
63903;BME280;50072;50.678;13.938;2023-05-21T11:06:34;99618.66;;;32.07;33.00
63903;BME280;50072;50.678;13.938;2023-05-21T11:09:10;99622.22;;;31.84;33.43
63903;BME280;50072;50.678;13.938;2023-05-21T11:11:51;99621.19;;;31.86;33.14
63903;BME280;50072;50.678;13.938;2023-05-21T11:16:50;99612.56;;;30.98;34.54
63903;BME280;50072;50.678;13.938;2023-05-21T11:19:17;99607.00;;;30.49;34.55
63903;BME280;50072;50.678;13.938;2023-05-21T11:21:42;99606.81;;;30.58;35.29
63903;BME280;50072;50.678;13.938;2023-05-21T11:24:18;99606.13;;;30.48;35.69
63903;BME280;50072;50.678;13.938;2023-05-21T11:29:13;99607.94;;;29.88;37.01
63903;BME280;50072;50.678;13.938;2023-05-21T11:31:44;99611.41;;;29.90;37.26
63903;BME280;50072;50.678;13.938;2023-05-21T11:34:20;99608.44;;;29.84;36.70
63903;BME280;50072;50.678;13.938;2023-05-21T11:40:15;99597.50;;;29.03;38.18
63903;BME280;50072;50.678;13.938;2023-05-21T11:42:41;99591.06;;;28.77;37.52
63903;BME280;50072;50.678;13.938;2023-05-21T11:45:09;99594.84;;;28.57;39.48
63903;BME280;50072;50.678;13.938;2023-05-21T11:47:35;99599.13;;;28.60;39.36
63903;BME280;50072;50.678;13.938;2023-05-21T11:50:02;99594.06;;;28.37;39.46
63903;BME280;50072;50.678;13.938;2023-05-21T11:52:29;99585.34;;;28.24;40.03
63903;BME280;50072;50.678;13.938;2023-05-21T11:54:56;99597.19;;;28.06;39.93
63903;BME280;50072;50.678;13.938;2023-05-21T11:57:27;99593.38;;;28.07;40.65
63903;BME280;50072;50.678;13.938;2023-05-21T11:59:57;99594.28;;;28.90;38.76
63903;BME280;50072;50.678;13.938;2023-05-21T12:02:31;99599.00;;;29.68;37.59
63903;BME280;50072;50.678;13.938;2023-05-21T12:04:57;99595.75;;;29.99;37.06
63903;BME280;50072;50.678;13.938;2023-05-21T12:07:28;99591.97;;;30.43;36.64
63903;BME280;50072;50.678;13.938;2023-05-21T12:09:54;99588.25;;;31.02;35.93
63903;BME280;50072;50.678;13.938;2023-05-21T12:12:22;99588.03;;;30.62;36.33
63903;BME280;50072;50.678;13.938;2023-05-21T12:14:49;99576.03;;;32.25;33.51
63903;BME280;50072;50.678;13.938;2023-05-21T12:17:20;99575.47;;;33.30;31.38
63903;BME280;50072;50.678;13.938;2023-05-21T12:19:47;99573.31;;;34.52;29.31
63903;BME280;50072;50.678;13.938;2023-05-21T12:22:13;99578.25;;;35.43;26.48
63903;BME280;50072;50.678;13.938;2023-05-21T12:24:42;99576.09;;;36.57;25.84
63903;BME280;50072;50.678;13.938;2023-05-21T12:27:09;99576.28;;;35.37;25.70
63903;BME280;50072;50.678;13.938;2023-05-21T12:29:39;99576.81;;;36.92;25.13
63903;BME280;50072;50.678;13.938;2023-05-21T12:32:09;99577.03;;;36.84;25.30
63903;BME280;50072;50.678;13.938;2023-05-21T12:34:43;99560.44;;;36.62;24.93
63903;BME280;50072;50.678;13.938;2023-05-21T12:37:24;99561.03;;;36.38;24.82
63903;BME280;50072;50.678;13.938;2023-05-21T12:39:52;99566.22;;;34.28;26.35
63903;BME280;50072;50.678;13.938;2023-05-21T12:42:29;99568.41;;;35.19;24.95
63903;BME280;50072;50.678;13.938;2023-05-21T12:44:56;99566.59;;;33.95;26.40
63903;BME280;50072;50.678;13.938;2023-05-21T12:47:23;99559.13;;;33.50;28.47
63903;BME280;50072;50.678;13.938;2023-05-21T12:49:53;99554.41;;;32.51;28.96
63903;BME280;50072;50.678;13.938;2023-05-21T12:52:20;99547.47;;;31.84;30.33
63903;BME280;50072;50.678;13.938;2023-05-21T12:54:51;99555.53;;;31.46;31.51
63903;BME280;50072;50.678;13.938;2023-05-21T12:57:19;99551.28;;;31.83;30.35
63903;BME280;50072;50.678;13.938;2023-05-21T13:02:25;99538.47;;;33.53;26.25
63903;BME280;50072;50.678;13.938;2023-05-21T13:05:03;99540.69;;;32.58;27.04
63903;BME280;50072;50.678;13.938;2023-05-21T13:07:30;99540.31;;;31.50;28.26
63903;BME280;50072;50.678;13.938;2023-05-21T13:09:57;99543.16;;;31.82;27.39
63903;BME280;50072;50.678;13.938;2023-05-21T13:12:25;99536.28;;;33.10;25.87
63903;BME280;50072;50.678;13.938;2023-05-21T13:14:56;99534.25;;;33.42;25.97
63903;BME280;50072;50.678;13.938;2023-05-21T13:17:23;99542.22;;;35.63;23.04